Time,TemperatureF,DewpointF,PressureIn,WindDirection,WindDirectionDegrees,WindSpeedMPH,WindSpeedGustMPH,Humidity,HourlyPrecipIn,Conditions,Clouds,dailyrainin,SoftwareType,DateUTC
2013-06-14 00:05:00,64.0,58.4,29.87,WNW,292,0.0,0.0,82,0.00,,,0.00,VWS V14.01,2013-06-13 21:05:00,
2013-06-14 00:10:00,64.0,58.4,29.87,NW,315,0.0,0.0,82,0.00,,,0.00,VWS V14.01,2013-06-13 21:10:00,
2013-06-14 00:15:00,64.0,58.4,29.87,West,270,0.0,0.0,82,0.00,,,0.00,VWS V14.01,2013-06-13 21:15:00,
2013-06-14 00:20:00,64.0,58.4,29.87,West,270,0.0,0.0,82,0.00,,,0.00,VWS V14.01,2013-06-13 21:20:00,
2013-06-14 00:25:00,64.2,58.6,29.87,West,270,0.0,0.0,82,0.00,,,0.00,VWS V14.01,2013-06-13 21:25:00,
2013-06-14 00:30:00,64.2,58.6,29.87,West,270,0.0,0.0,82,0.00,,,0.00,VWS V14.01,2013-06-13 21:30:00,
2013-06-14 00:35:00,64.4,58.8,29.87,NW,315,3.3,3.3,82,0.00,,,0.00,VWS V14.01,2013-06-13 21:35:00,
2013-06-14 00:40:00,64.6,58.3,29.87,NNW,338,3.3,3.3,80,0.00,,,0.00,VWS V14.01,2013-06-13 21:40:00,
2013-06-14 00:45:00,64.9,57.8,29.87,NNW,338,3.3,4.6,78,0.00,,,0.00,VWS V14.01,2013-06-13 21:45:00,
2013-06-14 00:50:00,65.1,57.7,29.87,NNW,338,2.9,5.5,77,0.00,,,0.00,VWS V14.01,2013-06-13 21:50:00,
2013-06-14 00:55:00,65.3,57.5,29.87,NNW,338,2.2,2.2,76,0.00,,,0.00,VWS V14.01,2013-06-13 21:55:00,
2013-06-14 01:00:00,65.3,57.5,29.87,NNW,338,0.0,0.0,76,0.00,,,0.00,VWS V14.01,2013-06-13 22:00:00,
2013-06-14 01:05:00,65.3,57.5,29.87,North,0,4.9,7.1,76,0.00,,,0.00,VWS V14.01,2013-06-13 22:05:00,
2013-06-14 01:10:00,65.5,57.7,29.87,NNW,338,2.4,2.4,76,0.00,,,0.00,VWS V14.01,2013-06-13 22:10:00,
2013-06-14 01:15:00,65.3,57.5,29.87,NNW,338,0.0,5.1,76,0.00,,,0.00,VWS V14.01,2013-06-13 22:15:00,
2013-06-14 01:20:00,65.3,57.5,29.87,NNW,338,5.3,5.3,76,0.00,,,0.00,VWS V14.01,2013-06-13 22:20:00,
2013-06-14 01:25:00,65.3,57.5,29.87,North,0,11.8,14.3,76,0.00,,,0.00,VWS V14.01,2013-06-13 22:25:00,
2013-06-14 01:31:00,65.5,57.0,29.87,NNW,338,9.1,11.4,74,0.00,,,0.00,VWS V14.01,2013-06-13 22:31:00,
2013-06-14 01:36:00,65.7,57.2,29.87,NW,315,4.2,8.5,74,0.00,,,0.00,VWS V14.01,2013-06-13 22:36:00,
2013-06-14 01:41:00,65.7,57.2,29.87,North,0,0.0,0.0,74,0.00,,,0.00,VWS V14.01,2013-06-13 22:41:00,
2013-06-14 01:46:00,65.7,57.2,29.87,NNW,338,1.3,1.3,74,0.00,,,0.00,VWS V14.01,2013-06-13 22:46:00,
2013-06-14 01:51:00,65.5,57.0,29.87,North,0,3.8,3.8,74,0.00,,,0.00,VWS V14.01,2013-06-13 22:51:00,
2013-06-14 01:56:00,65.5,57.0,29.87,NNW,338,3.3,4.4,74,0.00,,,0.00,VWS V14.01,2013-06-13 22:56:00,
2013-06-14 02:01:00,65.3,57.1,29.87,NNE,22,0.8,6.4,75,0.00,,,0.00,VWS V14.01,2013-06-13 23:01:00,
2013-06-14 02:06:00,65.3,57.1,29.87,North,0,2.2,2.2,75,0.00,,,0.00,VWS V14.01,2013-06-13 23:06:00,
2013-06-14 02:11:00,65.3,57.1,29.87,NNW,338,0.0,0.0,75,0.00,,,0.00,VWS V14.01,2013-06-13 23:11:00,
2013-06-14 02:16:00,65.3,57.1,29.87,North,0,2.4,2.4,75,0.00,,,0.00,VWS V14.01,2013-06-13 23:16:00,
2013-06-14 02:21:00,65.3,57.5,29.87,NNW,338,3.1,3.1,76,0.00,,,0.00,VWS V14.01,2013-06-13 23:21:00,
2013-06-14 02:26:00,65.3,57.5,29.87,NNW,338,4.6,4.6,76,0.00,,,0.00,VWS V14.01,2013-06-13 23:26:00,
2013-06-14 02:31:00,65.3,57.5,29.87,NW,315,3.5,3.5,76,0.00,,,0.00,VWS V14.01,2013-06-13 23:31:00,
2013-06-14 02:36:00,65.1,57.3,29.87,North,0,5.5,5.5,76,0.00,,,0.00,VWS V14.01,2013-06-13 23:36:00,
2013-06-14 02:41:00,65.1,57.3,29.86,NNW,338,1.3,1.3,76,0.00,,,0.00,VWS V14.01,2013-06-13 23:41:00,
2013-06-14 02:46:00,64.9,57.5,29.87,NNW,338,0.4,5.1,77,0.00,,,0.00,VWS V14.01,2013-06-13 23:46:00,
2013-06-14 02:51:00,64.9,57.5,29.86,NNW,338,2.6,5.1,77,0.00,,,0.00,VWS V14.01,2013-06-13 23:51:00,
2013-06-14 02:56:00,64.9,57.1,29.86,NNW,338,2.0,4.0,76,0.00,,,0.00,VWS V14.01,2013-06-13 23:56:00,
2013-06-14 03:01:00,64.9,57.1,29.86,NNW,338,2.9,2.9,76,0.00,,,0.00,VWS V14.01,2013-06-14 00:01:00,
2013-06-14 03:06:00,64.9,57.1,29.86,NNW,338,2.9,2.9,76,0.00,,,0.00,VWS V14.01,2013-06-14 00:06:00,
2013-06-14 03:11:00,64.9,57.1,29.86,NNW,338,0.0,0.0,76,0.00,,,0.00,VWS V14.01,2013-06-14 00:11:00,
2013-06-14 03:17:00,64.9,57.1,29.86,NW,315,3.8,3.8,76,0.00,,,0.00,VWS V14.01,2013-06-14 00:17:00,
2013-06-14 03:22:00,64.6,57.2,29.86,NW,315,4.6,4.6,77,0.00,,,0.00,VWS V14.01,2013-06-14 00:22:00,
2013-06-14 03:27:00,64.6,57.2,29.86,NW,315,0.0,4.0,77,0.00,,,0.00,VWS V14.01,2013-06-14 00:27:00,
2013-06-14 03:32:00,64.6,57.2,29.86,NW,315,0.0,0.0,77,0.00,,,0.00,VWS V14.01,2013-06-14 00:32:00,
2013-06-14 03:37:00,64.4,57.4,29.86,NNW,338,0.8,0.8,78,0.00,,,0.00,VWS V14.01,2013-06-14 00:37:00,
2013-06-14 03:42:00,64.4,57.4,29.86,NW,315,0.0,0.0,78,0.00,,,0.00,VWS V14.01,2013-06-14 00:42:00,
2013-06-14 03:47:00,64.4,57.4,29.86,NNW,338,0.0,0.0,78,0.00,,,0.00,VWS V14.01,2013-06-14 00:47:00,
2013-06-14 03:52:00,64.4,57.4,29.86,NNW,338,0.0,0.0,78,0.00,,,0.00,VWS V14.01,2013-06-14 00:52:00,
2013-06-14 03:57:00,64.4,57.4,29.86,NNW,338,0.0,0.0,78,0.00,,,0.00,VWS V14.01,2013-06-14 00:57:00,
2013-06-14 04:02:00,64.2,57.2,29.86,NW,315,0.0,0.0,78,0.00,,,0.00,VWS V14.01,2013-06-14 01:02:00,
2013-06-14 04:07:00,64.2,57.2,29.86,NW,315,0.0,0.0,78,0.00,,,0.00,VWS V14.01,2013-06-14 01:07:00,
2013-06-14 04:12:00,64.2,57.2,29.86,NW,315,2.6,2.6,78,0.00,,,0.00,VWS V14.01,2013-06-14 01:12:00,
2013-06-14 04:17:00,64.4,57.4,29.86,NNW,338,1.5,1.5,78,0.00,,,0.00,VWS V14.01,2013-06-14 01:17:00,
2013-06-14 04:22:00,64.6,57.2,29.86,NW,315,0.0,0.0,77,0.00,,,0.00,VWS V14.01,2013-06-14 01:22:00,
2013-06-14 04:27:00,64.9,57.1,29.86,West,270,0.8,0.8,76,0.00,,,0.00,VWS V14.01,2013-06-14 01:27:00,
2013-06-14 04:32:00,65.1,57.3,29.86,NNW,338,4.9,4.9,76,0.00,,,0.00,VWS V14.01,2013-06-14 01:32:00,
2013-06-14 04:37:00,65.3,57.5,29.86,NW,315,2.9,2.9,76,0.00,,,0.00,VWS V14.01,2013-06-14 01:37:00,
2013-06-14 04:42:00,65.3,57.5,29.86,NNW,338,0.0,0.0,76,0.00,,,0.00,VWS V14.01,2013-06-14 01:42:00,
2013-06-14 04:47:00,65.5,57.3,29.86,NNW,338,6.7,6.7,75,0.00,,,0.00,VWS V14.01,2013-06-14 01:47:00,
2013-06-14 04:52:00,65.7,57.2,29.86,NNW,338,4.6,10.9,74,0.00,,,0.00,VWS V14.01,2013-06-14 01:52:00,
2013-06-14 04:57:00,65.7,57.2,29.86,NNW,338,4.6,4.6,74,0.00,,,0.00,VWS V14.01,2013-06-14 01:57:00,
2013-06-14 05:03:00,65.7,57.2,29.86,NNW,338,7.1,7.1,74,0.00,,,0.00,VWS V14.01,2013-06-14 02:03:00,
2013-06-14 05:08:00,65.7,57.2,29.86,NNW,338,0.0,0.0,74,0.00,,,0.00,VWS V14.01,2013-06-14 02:08:00,
2013-06-14 05:13:00,65.5,57.0,29.86,NW,315,0.0,0.0,74,0.00,,,0.00,VWS V14.01,2013-06-14 02:13:00,
2013-06-14 05:18:00,65.5,57.0,29.87,NNW,338,1.7,1.7,74,0.00,,,0.00,VWS V14.01,2013-06-14 02:18:00,
2013-06-14 05:23:00,65.5,57.3,29.87,NNW,338,0.0,0.0,75,0.00,,,0.00,VWS V14.01,2013-06-14 02:23:00,
2013-06-14 05:28:00,65.5,57.3,29.87,NNW,338,1.3,1.3,75,0.00,,,0.00,VWS V14.01,2013-06-14 02:28:00,
2013-06-14 05:33:00,65.3,57.1,29.87,North,0,0.0,0.0,75,0.00,,,0.00,VWS V14.01,2013-06-14 02:33:00,
2013-06-14 05:38:00,65.5,57.0,29.87,NNW,338,0.0,0.0,74,0.00,,,0.00,VWS V14.01,2013-06-14 02:38:00,
2013-06-14 05:43:00,65.5,57.0,29.87,North,0,4.4,4.4,74,0.00,,,0.00,VWS V14.01,2013-06-14 02:43:00,
2013-06-14 05:48:00,65.5,57.0,29.87,North,0,6.4,8.5,74,0.00,,,0.00,VWS V14.01,2013-06-14 02:48:00,
2013-06-14 05:53:00,65.7,57.2,29.87,North,0,0.8,0.8,74,0.00,,,0.00,VWS V14.01,2013-06-14 02:53:00,
2013-06-14 05:58:00,65.5,57.0,29.88,NNW,338,0.8,0.8,74,0.00,,,0.00,VWS V14.01,2013-06-14 02:58:00,
2013-06-14 06:03:00,65.3,56.8,29.88,NNW,338,0.0,0.0,74,0.00,,,0.00,VWS V14.01,2013-06-14 03:03:00,
2013-06-14 06:08:00,65.3,57.1,29.87,North,0,0.0,0.0,75,0.00,,,0.00,VWS V14.01,2013-06-14 03:08:00,
2013-06-14 06:13:00,65.3,57.1,29.87,North,0,2.4,2.4,75,0.00,,,0.00,VWS V14.01,2013-06-14 03:13:00,
2013-06-14 06:18:00,65.5,57.0,29.87,North,0,1.1,1.1,74,0.00,,,0.00,VWS V14.01,2013-06-14 03:18:00,
2013-06-14 06:23:00,65.3,57.1,29.87,NNW,338,4.0,4.0,75,0.00,,,0.00,VWS V14.01,2013-06-14 03:23:00,
2013-06-14 06:28:00,65.5,57.3,29.87,North,0,0.0,0.0,75,0.00,,,0.00,VWS V14.01,2013-06-14 03:28:00,
2013-06-14 06:33:00,65.5,57.3,29.88,WNW,292,0.0,0.0,75,0.00,,,0.00,VWS V14.01,2013-06-14 03:33:00,
2013-06-14 06:39:00,65.7,57.5,29.87,WNW,292,0.0,0.0,75,0.00,,,0.00,VWS V14.01,2013-06-14 03:39:00,
2013-06-14 06:44:00,65.8,57.6,29.87,WNW,292,0.0,0.0,75,0.00,,,0.00,VWS V14.01,2013-06-14 03:44:00,
2013-06-14 06:49:00,66.2,57.6,29.88,WNW,292,0.0,0.0,74,0.00,,,0.00,VWS V14.01,2013-06-14 03:49:00,
2013-06-14 06:54:00,66.2,57.6,29.88,NW,315,0.0,0.0,74,0.00,,,0.00,VWS V14.01,2013-06-14 03:54:00,
2013-06-14 06:59:00,66.4,57.8,29.87,WNW,292,0.0,0.0,74,0.00,,,0.00,VWS V14.01,2013-06-14 03:59:00,
2013-06-14 07:01:00,66.4,58.2,29.87,NNW,338,0.0,0.0,75,0.00,,,0.00,VWS V14.01,2013-06-14 04:01:00,
2013-06-14 07:02:00,66.4,58.2,29.87,NNW,338,0.0,0.0,75,0.00,,,0.00,VWS V14.01,2013-06-14 04:02:00,
2013-06-14 07:07:00,66.6,58.4,29.87,NNW,338,2.4,2.4,75,0.00,,,0.00,VWS V14.01,2013-06-14 04:07:00,
2013-06-14 07:12:00,66.6,58.0,29.87,NNW,338,0.0,0.0,74,0.00,,,0.00,VWS V14.01,2013-06-14 04:12:00,
2013-06-14 07:17:00,66.9,58.3,29.88,NW,315,0.0,0.0,74,0.00,,,0.00,VWS V14.01,2013-06-14 04:17:00,
2013-06-14 07:22:00,67.3,58.3,29.88,NNW,338,4.6,4.6,73,0.00,,,0.00,VWS V14.01,2013-06-14 04:22:00,
2013-06-14 07:27:00,67.3,58.3,29.88,NNW,338,4.0,4.0,73,0.00,,,0.00,VWS V14.01,2013-06-14 04:27:00,
2013-06-14 07:32:00,67.6,58.2,29.88,NNW,338,7.6,8.5,72,0.00,,,0.00,VWS V14.01,2013-06-14 04:32:00,
2013-06-14 07:37:00,67.8,58.4,29.88,NW,315,9.3,9.3,72,0.00,,,0.00,VWS V14.01,2013-06-14 04:37:00,
2013-06-14 07:42:00,68.0,58.6,29.88,NNW,338,9.3,9.3,72,0.00,,,0.00,VWS V14.01,2013-06-14 04:42:00,
2013-06-14 07:47:00,68.2,58.0,29.88,WNW,292,6.4,7.1,70,0.00,,,0.00,VWS V14.01,2013-06-14 04:47:00,
2013-06-14 07:52:00,68.5,58.3,29.88,NW,315,6.2,6.7,70,0.00,,,0.00,VWS V14.01,2013-06-14 04:52:00,
2013-06-14 07:57:00,68.9,58.7,29.88,NNW,338,4.4,4.4,70,0.00,,,0.00,VWS V14.01,2013-06-14 04:57:00,
2013-06-14 08:02:00,69.1,58.5,29.88,North,0,8.5,8.5,69,0.00,,,0.00,VWS V14.01,2013-06-14 05:02:00,
2013-06-14 08:08:00,69.3,58.7,29.88,NW,315,0.2,0.2,69,0.00,,,0.00,VWS V14.01,2013-06-14 05:08:00,
2013-06-14 08:13:00,69.8,57.9,29.88,North,0,8.5,10.0,66,0.00,,,0.00,VWS V14.01,2013-06-14 05:13:00,
2013-06-14 08:18:00,70.0,58.1,29.89,WNW,292,8.2,12.3,66,0.00,,,0.00,VWS V14.01,2013-06-14 05:18:00,
2013-06-14 08:23:00,69.8,57.5,29.89,NNW,338,4.6,8.5,65,0.00,,,0.00,VWS V14.01,2013-06-14 05:23:00,
2013-06-14 08:28:00,69.4,57.1,29.89,North,0,6.2,6.2,65,0.00,,,0.00,VWS V14.01,2013-06-14 05:28:00,
2013-06-14 08:33:00,69.3,57.0,29.89,NW,315,11.1,12.9,65,0.00,,,0.00,VWS V14.01,2013-06-14 05:33:00,
2013-06-14 08:38:00,69.4,57.1,29.89,NW,315,5.5,5.5,65,0.00,,,0.00,VWS V14.01,2013-06-14 05:38:00,
2013-06-14 08:43:00,69.4,57.1,29.89,North,0,9.6,9.6,65,0.00,,,0.00,VWS V14.01,2013-06-14 05:43:00,
2013-06-14 08:48:00,69.1,56.8,29.89,NNE,22,7.8,12.7,65,0.00,,,0.00,VWS V14.01,2013-06-14 05:48:00,
2013-06-14 08:53:00,69.1,56.8,29.89,NNE,22,3.5,8.5,65,0.00,,,0.00,VWS V14.01,2013-06-14 05:53:00,
2013-06-14 08:58:00,69.1,57.2,29.89,North,0,2.9,2.9,66,0.00,,,0.00,VWS V14.01,2013-06-14 05:58:00,
2013-06-14 09:03:00,69.1,57.2,29.89,NNW,338,2.2,2.2,66,0.00,,,0.00,VWS V14.01,2013-06-14 06:03:00,
2013-06-14 09:08:00,69.1,56.8,29.89,NW,315,5.3,8.0,65,0.00,,,0.00,VWS V14.01,2013-06-14 06:08:00,
2013-06-14 09:13:00,69.1,56.8,29.89,NNW,338,1.3,1.3,65,0.00,,,0.00,VWS V14.01,2013-06-14 06:13:00,
2013-06-14 09:18:00,69.1,56.8,29.89,NNW,338,9.6,9.6,65,0.00,,,0.00,VWS V14.01,2013-06-14 06:18:00,
2013-06-14 09:23:00,69.3,57.0,29.89,North,0,8.9,8.9,65,0.00,,,0.00,VWS V14.01,2013-06-14 06:23:00,
2013-06-14 09:28:00,69.3,57.4,29.89,NNW,338,3.1,3.1,66,0.00,,,0.00,VWS V14.01,2013-06-14 06:28:00,
2013-06-14 09:34:00,69.3,57.0,29.90,NW,315,10.2,10.2,65,0.00,,,0.00,VWS V14.01,2013-06-14 06:34:00,
2013-06-14 09:39:00,69.4,57.1,29.89,North,0,4.2,4.2,65,0.00,,,0.00,VWS V14.01,2013-06-14 06:39:00,
2013-06-14 09:44:00,69.4,57.1,29.90,NNW,338,6.4,6.4,65,0.00,,,0.00,VWS V14.01,2013-06-14 06:44:00,
2013-06-14 09:49:00,69.8,57.5,29.90,NW,315,8.9,8.9,65,0.00,,,0.00,VWS V14.01,2013-06-14 06:49:00,
2013-06-14 09:54:00,69.8,57.5,29.91,North,0,4.9,10.7,65,0.00,,,0.00,VWS V14.01,2013-06-14 06:54:00,
2013-06-14 09:59:00,69.8,57.5,29.91,NNW,338,12.9,12.9,65,0.00,,,0.00,VWS V14.01,2013-06-14 06:59:00,
2013-06-14 10:04:00,69.6,57.7,29.91,NNW,338,5.5,10.0,66,0.00,,,0.00,VWS V14.01,2013-06-14 07:04:00,
2013-06-14 10:09:00,69.4,57.5,29.92,North,0,1.5,5.3,66,0.00,,,0.00,VWS V14.01,2013-06-14 07:09:00,
2013-06-14 10:14:00,69.3,57.8,29.92,North,0,3.1,10.5,67,0.00,,,0.00,VWS V14.01,2013-06-14 07:14:00,
2013-06-14 10:19:00,69.1,58.1,29.92,NW,315,7.6,8.0,68,0.00,,,0.00,VWS V14.01,2013-06-14 07:19:00,
2013-06-14 10:24:00,68.9,58.3,29.92,North,0,2.2,2.2,69,0.00,,,0.00,VWS V14.01,2013-06-14 07:24:00,
2013-06-14 10:29:00,68.9,58.7,29.92,North,0,5.1,5.1,70,0.00,,,0.00,VWS V14.01,2013-06-14 07:29:00,
2013-06-14 10:34:00,68.9,58.7,29.92,NNW,338,10.9,10.9,70,0.00,,,0.00,VWS V14.01,2013-06-14 07:34:00,
2013-06-14 10:39:00,68.9,59.5,29.93,NNW,338,6.7,6.7,72,0.00,,,0.00,VWS V14.01,2013-06-14 07:39:00,
2013-06-14 10:44:00,68.7,59.7,29.93,NW,315,10.0,10.7,73,0.00,,,0.00,VWS V14.01,2013-06-14 07:44:00,
2013-06-14 10:49:00,68.4,60.1,29.93,NW,315,15.8,15.8,75,0.00,,,0.00,VWS V14.01,2013-06-14 07:49:00,
2013-06-14 10:54:00,68.5,60.6,29.93,NNW,338,3.5,7.6,76,0.00,,,0.00,VWS V14.01,2013-06-14 07:54:00,
2013-06-14 10:59:00,68.5,60.2,29.93,North,0,6.7,10.7,75,0.00,,,0.00,VWS V14.01,2013-06-14 07:59:00,
2013-06-14 11:04:00,68.5,60.2,29.93,NNW,338,9.3,9.3,75,0.00,,,0.00,VWS V14.01,2013-06-14 08:04:00,
2013-06-14 11:09:00,68.2,60.3,29.93,North,0,4.2,7.3,76,0.00,,,0.00,VWS V14.01,2013-06-14 08:09:00,
2013-06-14 11:15:00,68.2,60.3,29.92,NNW,338,7.3,8.2,76,0.00,,,0.00,VWS V14.01,2013-06-14 08:15:00,
2013-06-14 11:20:00,68.2,60.3,29.93,NW,315,6.7,10.0,76,0.00,,,0.00,VWS V14.01,2013-06-14 08:20:00,
2013-06-14 11:25:00,68.2,60.3,29.93,NNW,338,10.0,12.5,76,0.00,,,0.00,VWS V14.01,2013-06-14 08:25:00,
2013-06-14 11:30:00,68.2,60.3,29.93,NNW,338,6.2,6.2,76,0.00,,,0.00,VWS V14.01,2013-06-14 08:30:00,
2013-06-14 11:35:00,68.2,60.3,29.93,NW,315,10.0,10.0,76,0.00,,,0.00,VWS V14.01,2013-06-14 08:35:00,
2013-06-14 11:40:00,68.2,60.3,29.93,NNW,338,1.7,1.7,76,0.00,,,0.00,VWS V14.01,2013-06-14 08:40:00,
2013-06-14 11:45:00,68.7,60.8,29.93,NW,315,9.6,9.6,76,0.00,,,0.00,VWS V14.01,2013-06-14 08:45:00,
2013-06-14 11:50:00,69.1,61.2,29.93,NNW,338,10.0,10.0,76,0.00,,,0.00,VWS V14.01,2013-06-14 08:50:00,
2013-06-14 11:55:00,70.0,60.5,29.93,NNW,338,12.3,12.3,72,0.00,,,0.00,VWS V14.01,2013-06-14 08:55:00,
2013-06-14 12:00:00,70.7,60.8,29.93,NNW,338,7.8,7.8,71,0.00,,,0.00,VWS V14.01,2013-06-14 09:00:00,
2013-06-14 12:05:00,71.1,60.8,29.93,NNW,338,0.0,0.0,70,0.00,,,0.00,VWS V14.01,2013-06-14 09:05:00,
2013-06-14 12:10:00,71.8,60.6,29.94,WNW,292,6.2,6.2,68,0.00,,,0.00,VWS V14.01,2013-06-14 09:10:00,
2013-06-14 12:15:00,71.8,60.2,29.93,West,270,2.2,2.2,67,0.00,,,0.00,VWS V14.01,2013-06-14 09:15:00,
2013-06-14 12:20:00,72.3,59.8,29.93,NW,315,3.3,9.1,65,0.00,,,0.00,VWS V14.01,2013-06-14 09:20:00,
2013-06-14 12:25:00,72.5,60.0,29.93,WNW,292,2.6,10.7,65,0.00,,,0.00,VWS V14.01,2013-06-14 09:25:00,
2013-06-14 12:30:00,73.0,60.1,29.93,NNW,338,11.1,11.1,64,0.00,,,0.00,VWS V14.01,2013-06-14 09:30:00,
2013-06-14 12:35:00,72.9,60.4,29.94,NNE,22,0.0,0.0,65,0.00,,,0.00,VWS V14.01,2013-06-14 09:35:00,
2013-06-14 12:40:00,72.3,60.3,29.94,NE,45,5.3,5.3,66,0.00,,,0.00,VWS V14.01,2013-06-14 09:40:00,
2013-06-14 12:46:00,71.2,59.7,29.94,North,0,3.8,7.3,67,0.00,,,0.00,VWS V14.01,2013-06-14 09:46:00,
2013-06-14 12:51:00,71.6,60.5,29.94,NW,315,4.6,8.7,68,0.00,,,0.00,VWS V14.01,2013-06-14 09:51:00,
2013-06-14 12:56:00,72.5,60.9,29.93,NNW,338,9.6,9.6,67,0.00,,,0.00,VWS V14.01,2013-06-14 09:56:00,
2013-06-14 13:01:00,72.7,60.7,29.93,NNW,338,6.9,10.2,66,0.00,,,0.00,VWS V14.01,2013-06-14 10:01:00,
2013-06-14 13:06:00,72.9,60.4,29.93,North,0,10.7,11.4,65,0.00,,,0.00,VWS V14.01,2013-06-14 10:06:00,
2013-06-14 13:11:00,72.7,60.2,29.93,NNW,338,12.7,12.7,65,0.00,,,0.00,VWS V14.01,2013-06-14 10:11:00,
2013-06-14 13:16:00,73.2,59.8,29.93,NNW,338,6.4,6.4,63,0.00,,,0.00,VWS V14.01,2013-06-14 10:16:00,
2013-06-14 13:21:00,74.3,61.3,29.93,WNW,292,2.6,2.6,64,0.00,,,0.00,VWS V14.01,2013-06-14 10:21:00,
2013-06-14 13:26:00,74.7,60.3,29.93,West,270,11.4,11.4,61,0.00,,,0.00,VWS V14.01,2013-06-14 10:26:00,
2013-06-14 13:31:00,74.5,60.2,29.93,NNW,338,11.1,11.1,61,0.00,,,0.00,VWS V14.01,2013-06-14 10:31:00,
2013-06-14 13:36:00,73.9,59.6,29.93,North,0,4.4,4.4,61,0.00,,,0.00,VWS V14.01,2013-06-14 10:36:00,
2013-06-14 13:41:00,73.9,60.5,29.93,North,0,2.0,2.0,63,0.00,,,0.00,VWS V14.01,2013-06-14 10:41:00,
2013-06-14 13:46:00,74.5,60.2,29.93,NE,45,4.2,7.6,61,0.00,,,0.00,VWS V14.01,2013-06-14 10:46:00,
2013-06-14 13:51:00,73.9,60.5,29.93,NNW,338,11.1,11.1,63,0.00,,,0.00,VWS V14.01,2013-06-14 10:51:00,
2013-06-14 13:56:00,74.3,60.4,29.93,NE,45,0.4,0.4,62,0.00,,,0.00,VWS V14.01,2013-06-14 10:56:00,
2013-06-14 14:01:00,73.9,60.0,29.93,NNW,338,11.4,11.4,62,0.00,,,0.00,VWS V14.01,2013-06-14 11:01:00,
2013-06-14 14:06:00,74.5,60.6,29.93,North,0,7.3,7.3,62,0.00,,,0.00,VWS V14.01,2013-06-14 11:06:00,
2013-06-14 14:11:00,74.8,60.0,29.93,North,0,10.7,10.7,60,0.00,,,0.00,VWS V14.01,2013-06-14 11:11:00,
2013-06-14 14:17:00,74.5,60.2,29.94,NW,315,1.1,5.8,61,0.00,,,0.00,VWS V14.01,2013-06-14 11:17:00,
2013-06-14 14:22:00,75.4,60.5,29.93,NW,315,9.8,11.1,60,0.00,,,0.00,VWS V14.01,2013-06-14 11:22:00,
2013-06-14 14:27:00,75.4,60.5,29.93,North,0,0.6,0.6,60,0.00,,,0.00,VWS V14.01,2013-06-14 11:27:00,
2013-06-14 14:32:00,75.9,61.5,29.93,NNW,338,5.3,5.3,61,0.00,,,0.00,VWS V14.01,2013-06-14 11:32:00,
2013-06-14 14:37:00,76.1,60.7,29.93,NNE,22,0.0,0.0,59,0.00,,,0.00,VWS V14.01,2013-06-14 11:37:00,
2013-06-14 14:42:00,76.3,60.4,29.93,NNE,22,4.9,4.9,58,0.00,,,0.00,VWS V14.01,2013-06-14 11:42:00,
2013-06-14 14:47:00,76.1,60.2,29.93,North,0,7.6,7.6,58,0.00,,,0.00,VWS V14.01,2013-06-14 11:47:00,
2013-06-14 14:52:00,75.7,58.9,29.93,NNW,338,8.2,8.2,56,0.00,,,0.00,VWS V14.01,2013-06-14 11:52:00,
2013-06-14 14:57:00,76.5,59.6,29.93,NW,315,10.5,12.7,56,0.00,,,0.00,VWS V14.01,2013-06-14 11:57:00,
2013-06-14 15:02:00,76.3,59.9,29.93,NW,315,6.0,12.3,57,0.00,,,0.00,VWS V14.01,2013-06-14 12:02:00,
2013-06-14 15:07:00,76.3,59.9,29.93,NW,315,15.2,15.2,57,0.00,,,0.00,VWS V14.01,2013-06-14 12:07:00,
2013-06-14 15:12:00,76.3,59.9,29.93,North,0,5.5,10.9,57,0.00,,,0.00,VWS V14.01,2013-06-14 12:12:00,
2013-06-14 15:17:00,76.3,59.9,29.93,NNW,338,14.3,14.3,57,0.00,,,0.00,VWS V14.01,2013-06-14 12:17:00,
2013-06-14 15:22:00,75.6,60.2,29.93,NNW,338,2.0,6.7,59,0.00,,,0.00,VWS V14.01,2013-06-14 12:22:00,
2013-06-14 15:27:00,75.6,59.8,29.93,WNW,292,6.4,12.3,58,0.00,,,0.00,VWS V14.01,2013-06-14 12:27:00,
2013-06-14 15:32:00,75.4,60.0,29.93,NNW,338,2.6,8.0,59,0.00,,,0.00,VWS V14.01,2013-06-14 12:32:00,
2013-06-14 15:37:00,75.0,60.2,29.93,NNW,338,1.1,1.1,60,0.00,,,0.00,VWS V14.01,2013-06-14 12:37:00,
2013-06-14 15:42:00,74.5,59.7,29.93,North,0,0.8,0.8,60,0.00,,,0.00,VWS V14.01,2013-06-14 12:42:00,
2013-06-14 15:48:00,75.0,59.7,29.92,North,0,2.9,7.8,59,0.00,,,0.00,VWS V14.01,2013-06-14 12:48:00,
2013-06-14 15:53:00,75.2,59.9,29.92,North,0,2.6,4.2,59,0.00,,,0.00,VWS V14.01,2013-06-14 12:53:00,
2013-06-14 15:58:00,75.9,60.0,29.92,NNW,338,0.0,0.4,58,0.00,,,0.00,VWS V14.01,2013-06-14 12:58:00,
2013-06-14 16:03:00,76.1,59.7,29.92,North,0,0.0,0.0,57,0.00,,,0.00,VWS V14.01,2013-06-14 13:03:00,
2013-06-14 16:08:00,76.5,60.1,29.91,North,0,4.6,4.6,57,0.00,,,0.00,VWS V14.01,2013-06-14 13:08:00,
2013-06-14 16:13:00,76.5,59.6,29.91,North,0,0.0,0.0,56,0.00,,,0.00,VWS V14.01,2013-06-14 13:13:00,
2013-06-14 16:18:00,76.3,57.9,29.91,NNW,338,8.5,8.5,53,0.00,,,0.00,VWS V14.01,2013-06-14 13:18:00,
2013-06-14 16:23:00,76.1,57.7,29.91,NNW,338,10.0,10.0,53,0.00,,,0.00,VWS V14.01,2013-06-14 13:23:00,
2013-06-14 16:28:00,76.1,58.7,29.91,NNW,338,3.5,3.5,55,0.00,,,0.00,VWS V14.01,2013-06-14 13:28:00,
2013-06-14 16:33:00,76.3,58.9,29.91,West,270,2.6,6.7,55,0.00,,,0.00,VWS V14.01,2013-06-14 13:33:00,
2013-06-14 16:38:00,76.6,58.7,29.91,NW,315,6.4,9.8,54,0.00,,,0.00,VWS V14.01,2013-06-14 13:38:00,
2013-06-14 16:43:00,76.5,58.6,29.91,North,0,5.5,7.6,54,0.00,,,0.00,VWS V14.01,2013-06-14 13:43:00,
2013-06-14 16:48:00,76.1,58.7,29.91,NW,315,8.5,8.5,55,0.00,,,0.00,VWS V14.01,2013-06-14 13:48:00,
2013-06-14 16:53:00,76.3,59.4,29.91,NNW,338,6.2,6.2,56,0.00,,,0.00,VWS V14.01,2013-06-14 13:53:00,
2013-06-14 16:58:00,76.5,59.6,29.91,NNW,338,6.2,6.2,56,0.00,,,0.00,VWS V14.01,2013-06-14 13:58:00,
2013-06-14 17:03:00,77.0,59.6,29.91,NW,315,8.2,8.2,55,0.00,,,0.00,VWS V14.01,2013-06-14 14:03:00,
2013-06-14 17:08:00,77.0,59.6,29.91,NNE,22,3.8,5.5,55,0.00,,,0.00,VWS V14.01,2013-06-14 14:08:00,
2013-06-14 17:13:00,77.0,59.1,29.91,WNW,292,3.3,6.7,54,0.00,,,0.00,VWS V14.01,2013-06-14 14:13:00,
2013-06-14 17:18:00,77.2,59.2,29.91,NW,315,0.6,0.6,54,0.00,,,0.00,VWS V14.01,2013-06-14 14:18:00,
2013-06-14 17:23:00,77.0,58.5,29.91,NNE,22,4.4,4.4,53,0.00,,,0.00,VWS V14.01,2013-06-14 14:23:00,
2013-06-14 17:28:00,76.6,59.2,29.91,NNW,338,2.2,4.4,55,0.00,,,0.00,VWS V14.01,2013-06-14 14:28:00,
2013-06-14 17:34:00,76.6,59.2,29.91,NNE,22,5.8,5.8,55,0.00,,,0.00,VWS V14.01,2013-06-14 14:34:00,
2013-06-14 17:39:00,76.5,59.1,29.91,NNW,338,6.4,6.4,55,0.00,,,0.00,VWS V14.01,2013-06-14 14:39:00,
2013-06-14 17:44:00,76.1,59.2,29.91,NNW,338,2.0,2.0,56,0.00,,,0.00,VWS V14.01,2013-06-14 14:44:00,
2013-06-14 17:49:00,75.4,58.6,29.91,NNW,338,10.5,10.5,56,0.00,,,0.00,VWS V14.01,2013-06-14 14:49:00,
2013-06-14 17:54:00,75.2,58.9,29.91,NW,315,2.4,2.4,57,0.00,,,0.00,VWS V14.01,2013-06-14 14:54:00,
2013-06-14 17:59:00,75.2,58.9,29.91,NNE,22,5.1,5.1,57,0.00,,,0.00,VWS V14.01,2013-06-14 14:59:00,
2013-06-14 18:04:00,75.2,58.9,29.91,North,0,4.6,4.6,57,0.00,,,0.00,VWS V14.01,2013-06-14 15:04:00,
2013-06-14 18:09:00,75.9,58.5,29.91,NNW,338,5.5,5.5,55,0.00,,,0.00,VWS V14.01,2013-06-14 15:09:00,
2013-06-14 18:14:00,76.3,58.4,29.91,NNE,22,2.2,2.2,54,0.00,,,0.00,VWS V14.01,2013-06-14 15:14:00,
2013-06-14 18:19:00,76.3,58.4,29.91,NW,315,0.0,0.0,54,0.00,,,0.00,VWS V14.01,2013-06-14 15:19:00,
2013-06-14 18:24:00,76.5,58.1,29.91,NW,315,10.2,10.2,53,0.00,,,0.00,VWS V14.01,2013-06-14 15:24:00,
2013-06-14 18:29:00,76.5,58.6,29.91,NW,315,0.0,0.2,54,0.00,,,0.00,VWS V14.01,2013-06-14 15:29:00,
2013-06-14 18:34:00,76.5,58.6,29.91,North,0,6.9,6.9,54,0.00,,,0.00,VWS V14.01,2013-06-14 15:34:00,
2013-06-14 18:39:00,76.6,58.7,29.91,NNE,22,0.0,0.0,54,0.00,,,0.00,VWS V14.01,2013-06-14 15:39:00,
2013-06-14 18:44:00,76.6,58.7,29.91,NNW,338,6.7,6.7,54,0.00,,,0.00,VWS V14.01,2013-06-14 15:44:00,
2013-06-14 18:49:00,76.5,57.5,29.91,NNW,338,9.3,9.3,52,0.00,,,0.00,VWS V14.01,2013-06-14 15:49:00,
2013-06-14 18:54:00,76.3,57.9,29.92,NNE,22,6.2,6.2,53,0.00,,,0.00,VWS V14.01,2013-06-14 15:54:00,
2013-06-14 18:59:00,76.1,58.2,29.92,North,0,1.1,1.1,54,0.00,,,0.00,VWS V14.01,2013-06-14 15:59:00,
2013-06-14 19:04:00,75.9,57.5,29.92,NNW,338,0.0,0.6,53,0.00,,,0.00,VWS V14.01,2013-06-14 16:04:00,
2013-06-14 19:09:00,76.1,58.2,29.92,NNW,338,2.0,10.7,54,0.00,,,0.00,VWS V14.01,2013-06-14 16:09:00,
2013-06-14 19:15:00,75.9,58.0,29.92,NNW,338,6.4,6.7,54,0.00,,,0.00,VWS V14.01,2013-06-14 16:15:00,
2013-06-14 19:20:00,75.9,58.5,29.92,North,0,0.0,0.0,55,0.00,,,0.00,VWS V14.01,2013-06-14 16:20:00,
2013-06-14 19:25:00,75.7,58.4,29.93,NW,315,8.5,8.5,55,0.00,,,0.00,VWS V14.01,2013-06-14 16:25:00,
2013-06-14 19:30:00,75.4,58.6,29.93,North,0,0.0,0.0,56,0.00,,,0.00,VWS V14.01,2013-06-14 16:30:00,
2013-06-14 19:35:00,75.2,58.4,29.93,NNE,22,8.7,8.7,56,0.00,,,0.00,VWS V14.01,2013-06-14 16:35:00,
2013-06-14 19:40:00,75.0,58.7,29.93,NW,315,3.5,3.5,57,0.00,,,0.00,VWS V14.01,2013-06-14 16:40:00,
2013-06-14 19:45:00,74.8,58.5,29.93,NNW,338,5.1,7.1,57,0.00,,,0.00,VWS V14.01,2013-06-14 16:45:00,
2013-06-14 19:50:00,74.5,58.7,29.93,NNW,338,4.2,7.6,58,0.00,,,0.00,VWS V14.01,2013-06-14 16:50:00,
2013-06-14 19:55:00,74.5,58.7,29.93,NNW,338,0.0,0.0,58,0.00,,,0.00,VWS V14.01,2013-06-14 16:55:00,
2013-06-14 20:00:00,74.5,58.7,29.93,NNW,338,4.4,4.4,58,0.00,,,0.00,VWS V14.01,2013-06-14 17:00:00,
2013-06-14 20:05:00,74.3,59.0,29.93,NW,315,0.0,0.0,59,0.00,,,0.00,VWS V14.01,2013-06-14 17:05:00,
2013-06-14 20:10:00,74.3,59.0,29.92,NNE,22,0.0,0.0,59,0.00,,,0.00,VWS V14.01,2013-06-14 17:10:00,
2013-06-14 20:15:00,74.1,58.8,29.92,NNE,22,0.0,0.0,59,0.00,,,0.00,VWS V14.01,2013-06-14 17:15:00,
2013-06-14 20:20:00,73.8,59.0,29.92,NNW,338,6.4,6.4,60,0.00,,,0.00,VWS V14.01,2013-06-14 17:20:00,
2013-06-14 20:25:00,73.6,58.8,29.92,North,0,0.0,0.0,60,0.00,,,0.00,VWS V14.01,2013-06-14 17:25:00,
2013-06-14 20:30:00,73.4,58.7,29.92,NNW,338,4.4,4.4,60,0.00,,,0.00,VWS V14.01,2013-06-14 17:30:00,
2013-06-14 20:35:00,73.4,58.7,29.92,North,0,0.0,0.0,60,0.00,,,0.00,VWS V14.01,2013-06-14 17:35:00,
2013-06-14 20:40:00,73.0,58.7,29.93,NNW,338,0.0,0.0,61,0.00,,,0.00,VWS V14.01,2013-06-14 17:40:00,
2013-06-14 20:45:00,72.9,58.6,29.93,NW,315,6.4,10.0,61,0.00,,,0.00,VWS V14.01,2013-06-14 17:45:00,
2013-06-14 20:50:00,72.7,58.5,29.93,North,0,0.2,0.2,61,0.00,,,0.00,VWS V14.01,2013-06-14 17:50:00,
2013-06-14 20:55:00,72.5,58.7,29.93,North,0,0.0,0.0,62,0.00,,,0.00,VWS V14.01,2013-06-14 17:55:00,
2013-06-14 21:01:00,72.5,58.7,29.93,NNW,338,0.0,5.1,62,0.00,,,0.00,VWS V14.01,2013-06-14 18:01:00,
2013-06-14 21:06:00,72.3,58.5,29.93,NNW,338,0.0,0.0,62,0.00,,,0.00,VWS V14.01,2013-06-14 18:06:00,
2013-06-14 21:11:00,72.1,58.3,29.93,NNW,338,0.0,0.0,62,0.00,,,0.00,VWS V14.01,2013-06-14 18:11:00,
2013-06-14 21:16:00,72.0,58.2,29.93,NNW,338,0.0,0.0,62,0.00,,,0.00,VWS V14.01,2013-06-14 18:16:00,
2013-06-14 21:21:00,71.8,58.5,29.94,NNW,338,0.0,0.0,63,0.00,,,0.00,VWS V14.01,2013-06-14 18:21:00,
2013-06-14 21:26:00,71.6,58.3,29.94,NNW,338,0.0,0.0,63,0.00,,,0.00,VWS V14.01,2013-06-14 18:26:00,
2013-06-14 21:31:00,71.6,58.3,29.94,NNW,338,0.0,0.0,63,0.00,,,0.00,VWS V14.01,2013-06-14 18:31:00,
2013-06-14 21:36:00,71.2,58.4,29.94,NNW,338,0.0,0.0,64,0.00,,,0.00,VWS V14.01,2013-06-14 18:36:00,
2013-06-14 21:41:00,71.2,58.4,29.94,NNW,338,0.0,0.0,64,0.00,,,0.00,VWS V14.01,2013-06-14 18:41:00,
2013-06-14 21:46:00,70.9,58.5,29.94,NNW,338,0.0,0.0,65,0.00,,,0.00,VWS V14.01,2013-06-14 18:46:00,
2013-06-14 21:51:00,70.7,58.8,29.94,NNW,338,0.0,0.0,66,0.00,,,0.00,VWS V14.01,2013-06-14 18:51:00,
2013-06-14 21:56:00,70.5,58.6,29.94,NNW,338,0.0,0.0,66,0.00,,,0.00,VWS V14.01,2013-06-14 18:56:00,
2013-06-14 22:01:00,70.3,58.4,29.94,NNW,338,0.0,0.0,66,0.00,,,0.00,VWS V14.01,2013-06-14 19:01:00,
2013-06-14 22:06:00,70.0,58.5,29.94,NNW,338,0.0,0.0,67,0.00,,,0.00,VWS V14.01,2013-06-14 19:06:00,
2013-06-14 22:11:00,69.8,58.3,29.94,WNW,292,0.0,0.0,67,0.00,,,0.00,VWS V14.01,2013-06-14 19:11:00,
2013-06-14 22:16:00,69.8,58.3,29.94,WNW,292,0.0,0.0,67,0.00,,,0.00,VWS V14.01,2013-06-14 19:16:00,
2013-06-14 22:21:00,69.8,58.3,29.94,WNW,292,0.0,0.0,67,0.00,,,0.00,VWS V14.01,2013-06-14 19:21:00,
2013-06-14 22:26:00,69.4,57.9,29.95,WNW,292,0.0,0.0,67,0.00,,,0.00,VWS V14.01,2013-06-14 19:26:00,
2013-06-14 22:31:00,69.4,57.5,29.95,North,0,0.0,0.0,66,0.00,,,0.00,VWS V14.01,2013-06-14 19:31:00,
2013-06-14 22:36:00,69.8,57.5,29.95,NNW,338,1.1,1.1,65,0.00,,,0.00,VWS V14.01,2013-06-14 19:36:00,
2013-06-14 22:41:00,69.8,57.5,29.95,NNW,338,0.0,0.0,65,0.00,,,0.00,VWS V14.01,2013-06-14 19:41:00,
2013-06-14 22:47:00,70.0,57.2,29.95,NNW,338,1.5,1.5,64,0.00,,,0.00,VWS V14.01,2013-06-14 19:47:00,
2013-06-14 22:52:00,70.0,56.8,29.95,North,0,4.2,4.2,63,0.00,,,0.00,VWS V14.01,2013-06-14 19:52:00,
2013-06-14 22:57:00,70.3,57.1,29.95,NNW,338,2.6,2.6,63,0.00,,,0.00,VWS V14.01,2013-06-14 19:57:00,
2013-06-14 23:02:00,70.2,57.0,29.95,NNW,338,3.5,3.5,63,0.00,,,0.00,VWS V14.01,2013-06-14 20:02:00,
2013-06-14 23:07:00,70.0,57.2,29.95,NNW,338,7.3,7.6,64,0.00,,,0.00,VWS V14.01,2013-06-14 20:07:00,
2013-06-14 23:12:00,70.0,57.2,29.95,NNW,338,6.2,8.9,64,0.00,,,0.00,VWS V14.01,2013-06-14 20:12:00,
2013-06-14 23:17:00,70.0,56.8,29.95,NW,315,6.2,6.9,63,0.00,,,0.00,VWS V14.01,2013-06-14 20:17:00,
2013-06-14 23:22:00,70.0,56.8,29.95,NW,315,4.6,5.5,63,0.00,,,0.00,VWS V14.01,2013-06-14 20:22:00,
2013-06-14 23:27:00,70.0,57.2,29.95,NNW,338,2.9,4.9,64,0.00,,,0.00,VWS V14.01,2013-06-14 20:27:00,
2013-06-14 23:32:00,69.8,57.0,29.95,NNW,338,3.5,3.5,64,0.00,,,0.00,VWS V14.01,2013-06-14 20:32:00,
2013-06-14 23:37:00,69.8,57.0,29.95,NW,315,0.0,0.0,64,0.00,,,0.00,VWS V14.01,2013-06-14 20:37:00,
2013-06-14 23:42:00,69.8,57.0,29.96,NNW,338,0.0,3.8,64,0.00,,,0.00,VWS V14.01,2013-06-14 20:42:00,
2013-06-14 23:47:00,69.4,56.7,29.96,NNW,338,3.5,3.5,64,0.00,,,0.00,VWS V14.01,2013-06-14 20:47:00,
2013-06-14 23:52:00,69.4,56.2,29.95,NNW,338,0.0,0.0,63,0.00,,,0.00,VWS V14.01,2013-06-14 20:52:00,
2013-06-14 23:57:00,69.8,56.2,29.95,NNW,338,1.1,1.1,62,0.00,,,0.00,VWS V14.01,2013-06-14 20:57:00,